createdAt,value
2019-03-12T00:00:01.722Z,13.70
2019-03-12T00:00:47.893Z,17.82
2019-03-12T00:01:23.131Z,14.80
2019-03-12T00:01:56.592Z,13.45
2019-03-12T00:02:30.064Z,12.28
2019-03-12T00:03:03.508Z,12.18
2019-03-12T00:03:37.026Z,14.65
2019-03-12T00:04:10.482Z,13.98
2019-03-12T00:04:43.949Z,15.00
2019-03-12T00:05:17.466Z,12.37
2019-03-12T00:05:50.944Z,12.20
2019-03-12T00:06:24.351Z,18.62
2019-03-12T00:06:57.764Z,12.80
2019-03-12T00:07:31.226Z,15.20
2019-03-12T00:08:04.675Z,14.95
2019-03-12T00:08:38.228Z,10.13
2019-03-12T00:09:11.609Z,12.85
2019-03-12T00:09:45.073Z,14.28
2019-03-12T00:10:18.519Z,13.40
2019-03-12T00:10:51.991Z,14.45
2019-03-12T00:11:25.457Z,11.40
2019-03-12T00:11:58.838Z,11.95
2019-03-12T00:12:32.293Z,10.38
2019-03-12T00:13:05.753Z,14.50
2019-03-12T00:13:39.237Z,13.13
2019-03-12T00:14:12.628Z,14.68
2019-03-12T00:14:46.017Z,13.68
2019-03-12T00:15:19.480Z,11.78
2019-03-12T00:15:52.860Z,14.63
2019-03-12T00:16:26.248Z,17.77
2019-03-12T00:16:59.791Z,15.28
2019-03-12T00:17:33.256Z,17.73
2019-03-12T00:18:06.760Z,18.57
2019-03-12T00:18:40.404Z,13.78
2019-03-12T00:19:13.937Z,14.38
2019-03-12T00:19:47.408Z,13.48
2019-03-12T00:20:20.866Z,12.75
2019-03-12T00:20:54.337Z,13.93
2019-03-12T00:21:27.803Z,13.48
2019-03-12T00:22:01.264Z,13.58
2019-03-12T00:22:34.709Z,14.43
2019-03-12T00:23:08.168Z,19.77
2019-03-12T00:23:41.637Z,15.55
2019-03-12T00:24:15.026Z,14.58
2019-03-12T00:24:48.497Z,14.05
2019-03-12T00:25:21.880Z,16.50
2019-03-12T00:25:55.349Z,16.17
2019-03-12T00:26:28.808Z,13.68
2019-03-12T00:27:02.193Z,14.07
2019-03-12T00:27:35.569Z,17.17
2019-03-12T00:28:09.088Z,15.85
2019-03-12T00:28:42.493Z,14.18
2019-03-12T00:29:15.872Z,14.98
2019-03-12T00:29:49.257Z,14.47
2019-03-12T00:30:22.719Z,17.85
2019-03-12T00:30:56.206Z,20.23
2019-03-12T00:31:29.692Z,16.52
2019-03-12T00:32:03.152Z,16.27
2019-03-12T00:32:36.822Z,15.88
2019-03-12T00:33:10.197Z,16.05
2019-03-12T00:33:43.609Z,12.63
2019-03-12T00:34:17.010Z,16.85
2019-03-12T00:34:50.397Z,16.17
2019-03-12T00:35:23.856Z,18.55
2019-03-12T00:35:57.338Z,14.70
2019-03-12T00:36:30.712Z,17.42
2019-03-12T00:37:04.177Z,16.65
2019-03-12T00:37:37.649Z,17.82
2019-03-12T00:38:11.173Z,15.72
2019-03-12T00:38:44.584Z,16.57
2019-03-12T00:39:18.077Z,18.80
2019-03-12T00:39:51.542Z,16.93
2019-03-12T00:40:24.920Z,18.32
2019-03-12T00:40:58.302Z,13.85
2019-03-12T00:41:31.970Z,13.80
2019-03-12T00:42:05.418Z,17.25
2019-03-12T00:42:38.894Z,18.85
2019-03-12T00:43:12.347Z,19.05
2019-03-12T00:43:45.822Z,16.90
2019-03-12T00:44:19.271Z,19.55
2019-03-12T00:44:52.665Z,13.50
2019-03-12T00:45:26.040Z,14.10
2019-03-12T00:45:59.517Z,15.60
2019-03-12T00:46:32.979Z,14.30
2019-03-12T00:47:06.449Z,16.70
2019-03-12T00:47:39.906Z,17.90
2019-03-12T00:48:13.293Z,17.20
2019-03-12T00:48:46.802Z,17.48
2019-03-12T00:49:20.308Z,17.67
2019-03-12T00:49:53.698Z,18.95
2019-03-12T00:50:27.100Z,15.93
2019-03-12T00:51:00.567Z,16.25
2019-03-12T00:51:34.033Z,14.68
2019-03-12T00:52:07.497Z,20.48
2019-03-12T00:52:40.878Z,17.62
2019-03-12T00:53:14.341Z,16.52
2019-03-12T00:53:47.839Z,17.35
2019-03-12T00:54:21.297Z,15.13
2019-03-12T00:54:54.756Z,17.02
2019-03-12T00:55:28.206Z,15.03
2019-03-12T00:56:01.692Z,19.98
2019-03-12T00:56:35.065Z,13.83
2019-03-12T00:57:08.530Z,15.83
2019-03-12T00:57:41.989Z,18.02
2019-03-12T00:58:15.453Z,16.30
2019-03-12T00:58:48.946Z,17.25
2019-03-12T00:59:22.665Z,19.98
2019-03-12T00:59:56.500Z,18.98
2019-03-12T01:00:30.425Z,17.82
2019-03-12T01:01:03.885Z,18.50
2019-03-12T01:01:37.286Z,16.67
2019-03-12T01:02:10.670Z,17.40
2019-03-12T01:02:44.148Z,17.62
2019-03-12T01:03:17.622Z,16.57
2019-03-12T01:03:51.000Z,13.28
2019-03-12T01:04:25.041Z,18.37
2019-03-12T01:04:58.496Z,17.30
2019-03-12T01:05:31.954Z,21.02
2019-03-12T01:06:05.414Z,16.65
2019-03-12T01:06:38.877Z,16.32
2019-03-12T01:07:12.346Z,16.15
2019-03-12T01:07:45.809Z,17.23
2019-03-12T01:08:19.273Z,23.85
2019-03-12T01:08:52.660Z,23.55
2019-03-12T01:09:26.524Z,15.90
2019-03-12T01:09:59.978Z,16.90
2019-03-12T01:10:33.457Z,19.55
2019-03-12T01:11:06.988Z,22.17
2019-03-12T01:11:40.457Z,18.70
2019-03-12T01:12:13.904Z,18.17
2019-03-12T01:12:47.389Z,19.48
2019-03-12T01:13:39.964Z,16.67
2019-03-12T01:14:13.398Z,20.85
2019-03-12T01:14:46.792Z,20.15
2019-03-12T01:15:20.243Z,18.07
2019-03-12T01:15:53.702Z,17.55
2019-03-12T01:16:27.173Z,17.92
2019-03-12T01:17:00.566Z,20.27
2019-03-12T01:17:34.044Z,17.32
2019-03-12T01:18:07.502Z,24.18
2019-03-12T01:18:40.949Z,21.05
2019-03-12T01:19:14.362Z,19.55
2019-03-12T01:19:47.745Z,19.42
2019-03-12T01:20:40.334Z,21.30
2019-03-12T01:21:13.815Z,20.00
2019-03-12T01:21:47.343Z,20.08
2019-03-12T01:22:20.797Z,25.97
2019-03-12T01:22:54.260Z,20.45
2019-03-12T01:23:27.737Z,20.75
2019-03-12T01:24:01.190Z,20.90
2019-03-12T01:24:34.600Z,23.22
2019-03-12T01:25:08.537Z,22.90
2019-03-12T01:25:41.990Z,18.92
2019-03-12T01:26:15.377Z,20.10
2019-03-12T01:26:48.842Z,20.27
2019-03-12T01:27:22.233Z,19.05
2019-03-12T01:27:55.701Z,20.82
2019-03-12T01:28:29.173Z,18.60
2019-03-12T01:29:02.638Z,20.65
2019-03-12T01:29:37.063Z,24.32
2019-03-12T01:30:11.872Z,24.55
2019-03-12T01:30:45.342Z,21.55
2019-03-12T01:31:18.792Z,25.77
2019-03-12T01:31:52.265Z,20.80
2019-03-12T01:32:25.727Z,21.85
2019-03-12T01:32:59.193Z,19.77
2019-03-12T01:33:32.645Z,25.00
2019-03-12T01:34:06.132Z,27.48
2019-03-12T01:34:39.618Z,27.70
2019-03-12T01:35:13.176Z,23.05
2019-03-12T01:35:46.634Z,23.77
2019-03-12T01:36:20.096Z,21.30
2019-03-12T01:36:53.558Z,21.68
2019-03-12T01:37:27.031Z,24.67
2019-03-12T01:38:00.485Z,24.70
2019-03-12T01:38:33.940Z,19.75
2019-03-12T01:39:07.638Z,22.52
2019-03-12T01:39:41.125Z,24.77
2019-03-12T01:40:14.814Z,22.60
2019-03-12T01:40:48.286Z,22.75
2019-03-12T01:41:21.752Z,27.20
2019-03-12T01:41:55.221Z,27.17
2019-03-12T01:42:28.700Z,27.75
2019-03-12T01:43:02.157Z,26.87
2019-03-12T01:43:35.544Z,20.45
2019-03-12T01:44:09.005Z,20.65
2019-03-12T01:44:42.407Z,26.17
2019-03-12T01:45:15.884Z,23.57
2019-03-12T01:45:49.353Z,27.93
2019-03-12T01:46:22.912Z,23.32
2019-03-12T01:46:56.417Z,27.73
2019-03-12T01:47:29.796Z,27.73
2019-03-12T01:48:03.267Z,29.87
2019-03-12T01:48:36.742Z,25.97
2019-03-12T01:49:10.251Z,24.12
2019-03-12T01:49:43.735Z,23.75
2019-03-12T01:50:17.241Z,26.12
2019-03-12T01:50:50.693Z,23.18
2019-03-12T01:51:24.414Z,25.08
2019-03-12T01:51:57.809Z,23.50
2019-03-12T01:52:31.297Z,28.67
2019-03-12T01:53:04.825Z,21.82
2019-03-12T01:53:38.291Z,23.83
2019-03-12T01:54:11.749Z,27.95
2019-03-12T01:54:45.166Z,25.57
2019-03-12T01:55:18.655Z,22.87
2019-03-12T01:55:52.103Z,25.80
2019-03-12T01:56:25.596Z,24.77
2019-03-12T01:56:59.058Z,26.90
2019-03-12T01:57:32.538Z,24.23
2019-03-12T01:58:05.994Z,30.52
2019-03-12T01:58:39.445Z,29.72
2019-03-12T01:59:12.845Z,25.10
2019-03-12T01:59:46.327Z,23.70
2019-03-12T02:00:19.874Z,21.40
2019-03-12T02:00:53.344Z,26.10
2019-03-12T02:01:26.733Z,25.00
2019-03-12T02:02:00.201Z,23.80
2019-03-12T02:02:33.664Z,25.00
2019-03-12T02:03:07.343Z,23.83
2019-03-12T02:03:40.796Z,29.30
2019-03-12T02:04:14.270Z,23.92
2019-03-12T02:04:47.656Z,25.77
2019-03-12T02:05:21.193Z,24.75
2019-03-12T02:05:54.663Z,28.45
2019-03-12T02:06:28.058Z,24.77
2019-03-12T02:07:01.537Z,25.65
2019-03-12T02:07:35.025Z,28.42
2019-03-12T02:08:08.474Z,23.67
2019-03-12T02:08:41.854Z,26.52
2019-03-12T02:09:15.252Z,28.20
2019-03-12T02:09:49.305Z,27.58
2019-03-12T02:10:22.694Z,24.45
2019-03-12T02:10:56.196Z,27.10
2019-03-12T02:11:29.653Z,30.97
2019-03-12T02:12:03.127Z,25.85
2019-03-12T02:12:36.589Z,26.25
2019-03-12T02:13:10.057Z,25.45
2019-03-12T02:13:43.516Z,24.65
2019-03-12T02:14:23.947Z,30.10
2019-03-12T02:14:57.463Z,22.05
2019-03-12T02:15:30.844Z,27.90
2019-03-12T02:16:04.301Z,25.48
2019-03-12T02:16:37.792Z,28.67
2019-03-12T02:17:11.449Z,29.40
2019-03-12T02:17:45.004Z,25.70
2019-03-12T02:18:18.405Z,23.60
2019-03-12T02:18:51.785Z,23.42
2019-03-12T02:19:25.209Z,26.93
2019-03-12T02:19:58.622Z,28.73
2019-03-12T02:20:32.084Z,24.12
2019-03-12T02:21:05.475Z,27.52
2019-03-12T02:21:38.936Z,27.40
2019-03-12T02:22:12.421Z,23.95
2019-03-12T02:22:45.881Z,26.52
2019-03-12T02:23:19.425Z,28.05
2019-03-12T02:23:52.900Z,25.90
2019-03-12T02:24:26.357Z,24.18
2019-03-12T02:24:59.854Z,25.23
2019-03-12T02:25:33.385Z,31.90
2019-03-12T02:26:06.861Z,28.25
2019-03-12T02:26:40.254Z,22.60
2019-03-12T02:27:13.704Z,24.05
2019-03-12T02:27:47.168Z,24.23
2019-03-12T02:28:20.825Z,25.00
2019-03-12T02:28:54.276Z,28.17
2019-03-12T02:29:27.739Z,25.70
2019-03-12T02:30:01.231Z,26.87
2019-03-12T02:30:34.689Z,23.47
2019-03-12T02:31:08.178Z,28.75
2019-03-12T02:31:41.641Z,20.92
2019-03-12T02:32:15.149Z,28.65
2019-03-12T02:32:48.765Z,22.75
2019-03-12T02:33:22.235Z,29.02
2019-03-12T02:33:55.615Z,24.67
2019-03-12T02:34:28.998Z,20.40
2019-03-12T02:35:02.446Z,24.40
2019-03-12T02:35:36.010Z,22.05
2019-03-12T02:36:09.535Z,26.73
2019-03-12T02:36:43.005Z,23.65
2019-03-12T02:37:16.398Z,25.35
2019-03-12T02:37:49.902Z,23.38
2019-03-12T02:38:23.509Z,26.25
2019-03-12T02:38:56.965Z,22.87
2019-03-12T02:39:30.350Z,23.90
2019-03-12T02:40:03.969Z,21.45
2019-03-12T02:40:37.477Z,23.42
2019-03-12T02:41:10.970Z,22.67
2019-03-12T02:41:44.451Z,25.27
2019-03-12T02:42:17.928Z,23.95
2019-03-12T02:42:51.389Z,22.65
2019-03-12T02:43:24.786Z,26.97
2019-03-12T02:43:58.199Z,21.93
2019-03-12T02:44:31.581Z,26.07
2019-03-12T02:45:05.325Z,21.40
2019-03-12T02:45:38.829Z,27.77
2019-03-12T02:46:12.293Z,25.77
2019-03-12T02:46:45.768Z,27.30
2019-03-12T02:47:19.311Z,26.20
2019-03-12T02:48:11.902Z,25.20
2019-03-12T02:48:45.674Z,24.50
2019-03-12T02:49:19.129Z,22.70
2019-03-12T02:49:52.611Z,23.02
2019-03-12T02:50:26.487Z,24.95
2019-03-12T02:50:59.955Z,20.10
2019-03-12T02:51:33.430Z,25.92
2019-03-12T02:52:06.804Z,23.22
2019-03-12T02:52:40.456Z,21.17
2019-03-12T02:53:13.918Z,22.40
2019-03-12T02:53:47.382Z,24.72
2019-03-12T02:54:20.771Z,24.30
2019-03-12T02:54:54.158Z,22.80
2019-03-12T02:55:27.566Z,25.88
2019-03-12T02:56:02.033Z,24.32
2019-03-12T02:56:35.970Z,23.38
2019-03-12T02:57:09.429Z,25.48
2019-03-12T02:57:42.907Z,29.12
2019-03-12T02:58:16.376Z,21.77
2019-03-12T02:58:49.842Z,23.67
2019-03-12T02:59:23.298Z,26.33
2019-03-12T02:59:56.841Z,23.50
2019-03-12T03:00:31.335Z,24.75
2019-03-12T03:01:04.790Z,21.52
2019-03-12T03:01:38.292Z,23.60
2019-03-12T03:02:11.721Z,21.40
2019-03-12T03:02:45.117Z,22.70
2019-03-12T03:03:18.561Z,23.75
2019-03-12T03:03:52.030Z,22.13
2019-03-12T03:04:25.523Z,21.70
2019-03-12T03:04:58.959Z,26.97
2019-03-12T03:05:34.974Z,24.18
2019-03-12T03:06:27.591Z,21.85
2019-03-12T03:07:24.401Z,23.27
2019-03-12T03:08:03.524Z,23.10
2019-03-12T03:08:37.012Z,22.37
2019-03-12T03:09:10.461Z,24.27
2019-03-12T03:09:43.937Z,22.20
2019-03-12T03:10:17.411Z,26.05
2019-03-12T03:10:50.995Z,21.37
2019-03-12T03:11:24.454Z,21.93
2019-03-12T03:11:57.945Z,26.35
2019-03-12T03:12:31.343Z,23.87
2019-03-12T03:13:04.998Z,24.95
2019-03-12T03:13:38.465Z,23.07
2019-03-12T03:14:27.654Z,26.02
2019-03-12T03:15:07.930Z,24.25
2019-03-12T03:15:43.186Z,23.20
2019-03-12T03:16:16.660Z,22.42
2019-03-12T03:16:50.178Z,23.35
2019-03-12T03:17:23.640Z,20.88
2019-03-12T03:17:57.161Z,23.18
2019-03-12T03:18:30.618Z,21.12
2019-03-12T03:19:04.076Z,23.32
2019-03-12T03:19:37.548Z,21.60
2019-03-12T03:20:11.032Z,24.37
2019-03-12T03:20:45.317Z,25.12
2019-03-12T03:21:18.815Z,19.15
2019-03-12T03:21:52.341Z,22.70
2019-03-12T03:22:25.800Z,21.93
2019-03-12T03:22:59.273Z,24.02
2019-03-12T03:23:32.752Z,24.27
2019-03-12T03:24:06.212Z,20.00
2019-03-12T03:24:39.716Z,20.55
2019-03-12T03:25:13.482Z,18.52
2019-03-12T03:25:46.943Z,23.67
2019-03-12T03:26:20.589Z,23.35
2019-03-12T03:26:54.065Z,17.77
2019-03-12T03:27:29.345Z,20.97
2019-03-12T03:28:02.575Z,21.65
2019-03-12T03:28:36.053Z,28.00
2019-03-12T03:29:09.509Z,25.50
2019-03-12T03:29:42.980Z,25.75
2019-03-12T03:30:20.179Z,21.65
2019-03-12T03:30:53.639Z,21.50
2019-03-12T03:31:27.120Z,25.72
2019-03-12T03:32:00.580Z,22.93
2019-03-12T03:32:33.966Z,27.90
2019-03-12T03:33:07.355Z,21.97
2019-03-12T03:33:40.891Z,20.92
2019-03-12T03:34:14.351Z,24.40
2019-03-12T03:34:47.816Z,26.05
2019-03-12T03:35:21.269Z,19.57
2019-03-12T03:35:54.650Z,21.97
2019-03-12T03:36:28.058Z,18.48
2019-03-12T03:37:01.512Z,20.97
2019-03-12T03:37:34.978Z,21.37
2019-03-12T03:38:08.456Z,19.92
2019-03-12T03:38:41.908Z,23.07
2019-03-12T03:39:15.380Z,18.87
2019-03-12T03:39:48.850Z,23.20
2019-03-12T03:40:22.327Z,21.42
2019-03-12T03:40:56.000Z,22.02
2019-03-12T03:41:29.461Z,19.35
2019-03-12T03:42:02.865Z,23.35
2019-03-12T03:42:36.343Z,24.50
2019-03-12T03:43:09.825Z,20.02
2019-03-12T03:43:43.302Z,21.23
2019-03-12T03:44:16.780Z,22.42
2019-03-12T03:44:50.171Z,19.17
2019-03-12T03:45:23.660Z,23.15
2019-03-12T03:45:57.158Z,25.15
2019-03-12T03:46:31.661Z,22.70
2019-03-12T03:47:05.123Z,22.52
2019-03-12T03:47:38.599Z,23.62
2019-03-12T03:48:12.085Z,23.38
2019-03-12T03:48:45.470Z,19.20
2019-03-12T03:49:18.944Z,18.50
2019-03-12T03:49:52.343Z,24.43
2019-03-12T03:50:25.793Z,22.62
2019-03-12T03:50:59.262Z,24.32
2019-03-12T03:51:32.737Z,23.27
2019-03-12T03:52:06.246Z,19.90
2019-03-12T03:52:39.708Z,24.18
2019-03-12T03:53:13.181Z,19.77
2019-03-12T03:53:46.647Z,20.23
2019-03-12T03:54:20.110Z,20.37
2019-03-12T03:54:53.574Z,22.65
2019-03-12T03:55:27.046Z,20.45
2019-03-12T03:56:00.532Z,19.52
2019-03-12T03:56:35.001Z,17.73
2019-03-12T03:57:08.471Z,19.40
2019-03-12T03:57:41.929Z,16.85
2019-03-12T03:58:15.306Z,17.87
2019-03-12T03:58:48.836Z,19.05
2019-03-12T03:59:22.291Z,19.57
2019-03-12T03:59:55.751Z,20.40
2019-03-12T04:00:29.213Z,21.62
2019-03-12T04:01:02.871Z,20.45
2019-03-12T04:01:36.269Z,18.98
2019-03-12T04:02:09.737Z,20.80
2019-03-12T04:02:43.324Z,21.77
2019-03-12T04:03:16.838Z,15.70
2019-03-12T04:03:50.308Z,19.75
2019-03-12T04:04:23.773Z,19.87
2019-03-12T04:04:57.333Z,20.65
2019-03-12T04:05:30.862Z,18.23
2019-03-12T04:06:04.322Z,22.73
2019-03-12T04:06:37.799Z,17.82
2019-03-12T04:07:11.265Z,18.27
2019-03-12T04:07:44.779Z,20.43
2019-03-12T04:08:18.262Z,19.98
2019-03-12T04:08:51.803Z,26.87
2019-03-12T04:09:25.266Z,19.82
2019-03-12T04:09:58.732Z,20.50
2019-03-12T04:10:32.206Z,21.25
2019-03-12T04:11:05.684Z,19.57
2019-03-12T04:11:40.044Z,22.98
2019-03-12T04:12:13.503Z,14.85
2019-03-12T04:12:47.045Z,17.00
2019-03-12T04:13:20.525Z,19.23
2019-03-12T04:13:53.910Z,18.42
2019-03-12T04:14:27.370Z,15.63
2019-03-12T04:15:00.909Z,19.90
2019-03-12T04:15:34.751Z,17.07
2019-03-12T04:16:08.219Z,18.23
2019-03-12T04:16:41.711Z,22.13
2019-03-12T04:17:15.183Z,21.23
2019-03-12T04:17:48.666Z,19.67
2019-03-12T04:18:22.049Z,28.32
2019-03-12T04:18:55.514Z,17.37
2019-03-12T04:19:28.984Z,22.65
2019-03-12T04:20:02.456Z,20.52
2019-03-12T04:20:35.926Z,19.55
2019-03-12T04:21:09.389Z,20.20
2019-03-12T04:21:42.802Z,23.05
2019-03-12T04:22:16.292Z,19.12
2019-03-12T04:22:49.821Z,14.33
2019-03-12T04:23:23.304Z,16.45
2019-03-12T04:23:56.883Z,17.52
2019-03-12T04:24:30.273Z,17.17
2019-03-12T04:25:03.750Z,16.07
2019-03-12T04:25:37.225Z,18.20
2019-03-12T04:26:10.682Z,16.97
2019-03-12T04:26:44.178Z,18.87
2019-03-12T04:27:17.633Z,17.92
2019-03-12T04:27:51.102Z,15.18
2019-03-12T04:28:24.549Z,15.23
2019-03-12T04:28:57.962Z,20.50
2019-03-12T04:29:31.438Z,17.25
2019-03-12T04:30:05.127Z,17.55
2019-03-12T04:30:38.586Z,16.07
2019-03-12T04:31:11.953Z,21.80
2019-03-12T04:31:45.497Z,18.50
2019-03-12T04:32:19.248Z,17.42
2019-03-12T04:32:52.772Z,15.20
2019-03-12T04:33:44.315Z,17.07
2019-03-12T04:34:19.166Z,21.12
2019-03-12T04:34:52.538Z,14.93
2019-03-12T04:35:26.022Z,15.30
2019-03-12T04:35:59.405Z,17.60
2019-03-12T04:36:32.864Z,17.92
2019-03-12T04:37:06.442Z,15.70
2019-03-12T04:37:39.838Z,17.07
2019-03-12T04:38:13.303Z,16.42
2019-03-12T04:38:46.786Z,16.37
2019-03-12T04:39:20.340Z,16.73
2019-03-12T04:39:53.813Z,20.80
2019-03-12T04:40:27.281Z,15.93
2019-03-12T04:41:00.802Z,17.90
2019-03-12T04:41:34.258Z,16.32
2019-03-12T04:42:07.971Z,15.10
2019-03-12T04:42:41.515Z,17.05
2019-03-12T04:43:14.907Z,18.02
2019-03-12T04:43:48.373Z,14.63
2019-03-12T04:44:21.918Z,16.48
2019-03-12T04:44:55.385Z,18.35
2019-03-12T04:45:28.849Z,15.50
2019-03-12T04:46:02.305Z,21.80
2019-03-12T04:46:35.764Z,17.35
2019-03-12T04:47:09.249Z,16.32
2019-03-12T04:47:42.703Z,14.80
2019-03-12T04:48:16.170Z,15.70
2019-03-12T04:48:49.560Z,23.02
2019-03-12T04:49:23.020Z,19.65
2019-03-12T04:49:56.517Z,18.30
2019-03-12T04:50:29.914Z,15.18
2019-03-12T04:51:03.385Z,17.90
2019-03-12T04:51:36.768Z,16.77
2019-03-12T04:52:10.310Z,17.55
2019-03-12T04:52:43.986Z,22.37
2019-03-12T04:53:17.366Z,17.77
2019-03-12T04:53:50.835Z,20.08
2019-03-12T04:54:24.286Z,15.83
2019-03-12T04:54:57.756Z,16.45
2019-03-12T04:55:31.416Z,15.60
2019-03-12T04:56:04.873Z,15.83
2019-03-12T04:56:38.352Z,18.45
2019-03-12T04:57:11.836Z,18.55
2019-03-12T04:57:45.450Z,17.45
2019-03-12T04:58:18.929Z,16.75
2019-03-12T04:58:52.387Z,16.12
2019-03-12T04:59:25.854Z,18.17
2019-03-12T04:59:59.330Z,19.95
2019-03-12T05:00:32.793Z,15.45
2019-03-12T05:01:06.353Z,13.70
2019-03-12T05:01:39.992Z,16.93
2019-03-12T05:02:13.557Z,18.80
2019-03-12T05:02:47.160Z,13.95
2019-03-12T05:03:20.702Z,16.95
2019-03-12T05:03:54.223Z,16.85
2019-03-12T05:04:27.737Z,17.45
2019-03-12T05:05:01.184Z,17.52
2019-03-12T05:05:34.728Z,19.55
2019-03-12T05:06:08.190Z,14.07
2019-03-12T05:06:41.633Z,11.95
2019-03-12T05:07:15.209Z,20.27
2019-03-12T05:07:48.671Z,18.60
2019-03-12T05:08:22.061Z,14.78
2019-03-12T05:08:55.540Z,14.00
2019-03-12T05:09:29.004Z,23.70
2019-03-12T05:10:02.454Z,14.25
2019-03-12T05:10:35.828Z,16.82
2019-03-12T05:11:09.298Z,15.45
2019-03-12T05:11:42.692Z,17.80
2019-03-12T05:12:16.184Z,18.17
2019-03-12T05:12:49.568Z,15.00
2019-03-12T05:13:23.038Z,16.10
2019-03-12T05:14:19.587Z,14.78
2019-03-12T05:14:53.044Z,18.48
2019-03-12T05:15:26.514Z,16.10
2019-03-12T05:16:00.179Z,16.57
2019-03-12T05:16:33.557Z,13.62
2019-03-12T05:17:13.885Z,14.87
2019-03-12T05:17:47.350Z,17.10
2019-03-12T05:18:20.744Z,15.40
2019-03-12T05:18:54.196Z,13.85
2019-03-12T05:19:28.186Z,17.85
2019-03-12T05:20:01.661Z,13.00
2019-03-12T05:20:35.117Z,15.60
2019-03-12T05:21:08.573Z,15.45
2019-03-12T05:21:44.866Z,13.22
2019-03-12T05:22:18.302Z,14.40
2019-03-12T05:22:51.769Z,16.17
2019-03-12T05:23:25.257Z,11.45
2019-03-12T05:23:58.717Z,22.25
2019-03-12T05:24:32.177Z,15.72
2019-03-12T05:25:06.122Z,15.23
2019-03-12T05:25:39.513Z,14.83
2019-03-12T05:26:12.916Z,17.60
2019-03-12T05:26:46.393Z,14.98
2019-03-12T05:27:19.777Z,13.58
2019-03-12T05:27:53.279Z,15.20
2019-03-12T05:28:26.737Z,19.00
2019-03-12T05:29:00.213Z,16.62
2019-03-12T05:29:33.685Z,14.55
2019-03-12T05:30:08.301Z,14.15
2019-03-12T05:30:41.704Z,13.80
2019-03-12T05:31:15.104Z,16.37
2019-03-12T05:31:48.500Z,13.35
2019-03-12T05:32:21.952Z,21.00
2019-03-12T05:32:55.428Z,18.40
2019-03-12T05:33:28.893Z,12.73
2019-03-12T05:34:02.366Z,13.90
2019-03-12T05:34:35.826Z,14.40
2019-03-12T05:35:09.307Z,13.30
2019-03-12T05:35:42.775Z,14.30
2019-03-12T05:36:16.224Z,16.40
2019-03-12T05:36:49.609Z,20.40
2019-03-12T05:37:23.081Z,12.37
2019-03-12T05:37:56.590Z,16.45
2019-03-12T05:38:30.068Z,12.60
2019-03-12T05:39:05.077Z,14.47
2019-03-12T05:39:38.623Z,14.05
2019-03-12T05:40:12.735Z,13.53
2019-03-12T05:40:46.196Z,15.40
2019-03-12T05:41:19.623Z,17.90
2019-03-12T05:41:53.088Z,13.75
2019-03-12T05:42:26.568Z,18.02
2019-03-12T05:43:00.026Z,12.18
2019-03-12T05:43:33.513Z,13.22
2019-03-12T05:44:06.985Z,15.13
2019-03-12T05:44:40.441Z,11.30
2019-03-12T05:45:13.863Z,15.13
2019-03-12T05:45:47.336Z,11.90
2019-03-12T05:46:20.802Z,12.85
2019-03-12T05:46:54.363Z,12.45
2019-03-12T05:47:27.840Z,10.53
2019-03-12T05:48:01.234Z,13.10
2019-03-12T05:48:34.702Z,14.53
2019-03-12T05:49:08.244Z,14.93
2019-03-12T05:49:41.700Z,13.83
2019-03-12T05:50:15.173Z,15.98
2019-03-12T05:50:48.636Z,15.15
2019-03-12T05:51:22.105Z,16.35
2019-03-12T05:51:55.688Z,11.38
2019-03-12T05:52:29.073Z,15.45
2019-03-12T05:53:11.970Z,13.43
2019-03-12T05:53:46.090Z,11.33
2019-03-12T05:54:19.551Z,10.38
2019-03-12T05:54:53.016Z,17.27
2019-03-12T05:55:26.493Z,10.32
2019-03-12T05:55:59.900Z,13.30
2019-03-12T05:56:33.365Z,23.85
2019-03-12T05:57:06.823Z,12.30
2019-03-12T05:57:40.288Z,18.12
2019-03-12T05:58:13.819Z,13.80
2019-03-12T05:58:47.312Z,16.07
2019-03-12T05:59:20.754Z,12.50
2019-03-12T05:59:54.210Z,19.55
2019-03-12T06:00:28.005Z,17.80
2019-03-12T06:01:01.397Z,12.93
2019-03-12T06:01:34.889Z,13.05
2019-03-12T06:02:08.392Z,15.32
2019-03-12T06:02:41.781Z,11.20
2019-03-12T06:03:15.595Z,17.45
2019-03-12T06:03:49.049Z,15.15
2019-03-12T06:04:22.533Z,14.50
2019-03-12T06:04:55.984Z,18.17
2019-03-12T06:05:29.463Z,11.03
2019-03-12T06:06:02.920Z,14.83
2019-03-12T06:06:36.393Z,13.60
2019-03-12T06:07:09.860Z,14.43
2019-03-12T06:07:43.323Z,15.18
2019-03-12T06:08:16.934Z,23.55
2019-03-12T06:08:50.397Z,18.98
2019-03-12T06:09:30.114Z,13.45
2019-03-12T06:09:59.049Z,14.13
2019-03-12T06:10:32.564Z,12.10
2019-03-12T06:11:06.018Z,16.12
2019-03-12T06:11:39.498Z,11.12
2019-03-12T06:12:13.033Z,17.87
2019-03-12T06:12:46.505Z,13.75
2019-03-12T06:13:20.019Z,11.65
2019-03-12T06:13:53.493Z,15.98
2019-03-12T06:14:26.986Z,17.35
2019-03-12T06:15:00.411Z,16.20
2019-03-12T06:15:33.833Z,12.60
2019-03-12T06:16:07.319Z,17.85
2019-03-12T06:16:40.776Z,15.95
2019-03-12T06:17:14.200Z,21.48
2019-03-12T06:17:47.637Z,15.60
2019-03-12T06:18:21.136Z,12.50
2019-03-12T06:18:54.605Z,16.57
2019-03-12T06:19:28.005Z,16.20
2019-03-12T06:20:01.410Z,21.85
2019-03-12T06:20:34.871Z,16.10
2019-03-12T06:21:08.329Z,13.65
2019-03-12T06:21:42.000Z,13.22
2019-03-12T06:22:15.457Z,17.90
2019-03-12T06:22:49.001Z,13.90
2019-03-12T06:23:22.505Z,15.50
2019-03-12T06:23:56.022Z,19.00
2019-03-12T06:24:29.434Z,18.02
2019-03-12T06:25:02.908Z,12.65
2019-03-12T06:25:36.364Z,17.62
2019-03-12T06:26:09.841Z,14.00
2019-03-12T06:26:43.328Z,20.55
2019-03-12T06:27:18.233Z,22.17
2019-03-12T06:27:52.028Z,20.60
2019-03-12T06:28:25.565Z,20.62
2019-03-12T06:28:59.023Z,16.75
2019-03-12T06:29:32.521Z,14.55
2019-03-12T06:30:06.370Z,17.50
2019-03-12T06:30:51.460Z,15.58
2019-03-12T06:31:41.669Z,20.80
2019-03-12T06:32:30.851Z,17.67
2019-03-12T06:33:13.951Z,23.10
2019-03-12T06:33:49.940Z,18.48
2019-03-12T06:34:51.906Z,17.70
2019-03-12T06:35:31.069Z,17.67
2019-03-12T06:36:18.272Z,16.48
2019-03-12T06:36:59.642Z,19.87
2019-03-12T06:37:44.393Z,20.97
2019-03-12T06:38:52.474Z,17.40
2019-03-12T06:39:54.216Z,15.13
2019-03-12T06:40:45.544Z,15.83
2019-03-12T06:41:38.877Z,19.40
2019-03-12T06:42:34.325Z,20.08
2019-03-12T06:43:27.205Z,19.77
2019-03-12T06:44:11.553Z,16.85
2019-03-12T06:45:13.358Z,19.50
2019-03-12T06:46:01.350Z,18.48
2019-03-12T06:46:51.842Z,20.12
2019-03-12T06:47:50.369Z,17.15
2019-03-12T06:48:38.136Z,21.27
2019-03-12T06:49:26.485Z,26.17
2019-03-12T06:50:19.148Z,24.55
2019-03-12T06:50:58.902Z,17.92
2019-03-12T06:51:52.157Z,26.55
2019-03-12T06:52:34.159Z,22.27
2019-03-12T06:53:22.408Z,19.80
2019-03-12T06:54:05.220Z,22.22
2019-03-12T06:55:00.412Z,24.18
2019-03-12T06:55:54.556Z,30.10
2019-03-12T06:56:56.082Z,26.33
2019-03-12T06:57:47.079Z,21.57
2019-03-12T06:58:39.726Z,25.75
2019-03-12T06:59:35.273Z,36.10
2019-03-12T07:00:27.477Z,20.43
2019-03-12T07:01:15.085Z,26.15
2019-03-12T07:02:10.640Z,22.00
2019-03-12T07:03:12.001Z,18.90
2019-03-12T07:04:08.736Z,26.75
2019-03-12T07:05:00.378Z,30.75
2019-03-12T07:05:58.716Z,22.40
2019-03-12T07:06:53.949Z,18.30
2019-03-12T07:07:52.585Z,18.37
2019-03-12T07:08:43.911Z,26.85
2019-03-12T07:09:35.229Z,25.27
2019-03-12T07:10:17.594Z,20.92
2019-03-12T07:11:16.142Z,22.35
2019-03-12T07:12:02.556Z,24.55
2019-03-12T07:12:58.002Z,27.52
2019-03-12T07:13:39.821Z,27.20
2019-03-12T07:14:22.913Z,21.82
2019-03-12T07:15:18.637Z,24.32
2019-03-12T07:15:58.271Z,18.50
2019-03-12T07:16:42.309Z,20.48
2019-03-12T07:17:25.513Z,23.45
2019-03-12T07:18:06.474Z,24.27
2019-03-12T07:18:54.929Z,23.52
2019-03-12T07:19:45.966Z,36.55
2019-03-12T07:20:53.574Z,37.05
2019-03-12T07:21:36.608Z,25.48
2019-03-12T07:22:28.106Z,27.22
2019-03-12T07:23:23.524Z,18.20
2019-03-12T07:24:22.597Z,30.12
2019-03-12T07:25:10.232Z,26.30
2019-03-12T07:26:15.096Z,21.80
2019-03-12T07:26:58.549Z,22.07
2019-03-12T07:27:48.946Z,22.93
2019-03-12T07:28:49.842Z,21.87
2019-03-12T07:29:45.066Z,34.53
2019-03-12T07:30:40.296Z,25.62
2019-03-12T07:31:21.946Z,33.98
2019-03-12T07:32:17.508Z,28.40
2019-03-12T07:33:10.058Z,28.07
2019-03-12T07:34:18.127Z,21.50
2019-03-12T07:35:01.165Z,28.73
2019-03-12T07:35:57.388Z,23.00
2019-03-12T07:36:38.500Z,24.12
2019-03-12T07:37:23.300Z,30.27
2019-03-12T07:38:16.017Z,21.02